sensor_id;sensor_type;location;lat;lon;timestamp;P1;durP1;ratioP1;P2;durP2;ratioP2
47659;SDS011;33403;43.608;1.458;2023-05-02T00:00:22;4.07;;;2.83;;
47659;SDS011;33403;43.608;1.458;2023-05-02T00:02:47;5.00;;;2.42;;
47659;SDS011;33403;43.608;1.458;2023-05-02T00:05:13;3.85;;;2.65;;
47659;SDS011;33403;43.608;1.458;2023-05-02T00:07:39;6.70;;;2.90;;
47659;SDS011;33403;43.608;1.458;2023-05-02T00:10:05;6.32;;;3.00;;
47659;SDS011;33403;43.608;1.458;2023-05-02T00:12:32;4.65;;;2.70;;
47659;SDS011;33403;43.608;1.458;2023-05-02T00:14:58;4.82;;;3.00;;
47659;SDS011;33403;43.608;1.458;2023-05-02T00:17:25;6.28;;;2.70;;
47659;SDS011;33403;43.608;1.458;2023-05-02T00:19:50;4.82;;;2.83;;
47659;SDS011;33403;43.608;1.458;2023-05-02T00:22:16;6.47;;;2.67;;
47659;SDS011;33403;43.608;1.458;2023-05-02T00:24:42;7.75;;;2.75;;
47659;SDS011;33403;43.608;1.458;2023-05-02T00:27:07;4.28;;;2.70;;
47659;SDS011;33403;43.608;1.458;2023-05-02T00:29:33;6.13;;;2.85;;
47659;SDS011;33403;43.608;1.458;2023-05-02T00:31:59;6.25;;;2.58;;
47659;SDS011;33403;43.608;1.458;2023-05-02T00:34:28;5.07;;;3.00;;
47659;SDS011;33403;43.608;1.458;2023-05-02T00:36:55;8.50;;;3.10;;
47659;SDS011;33403;43.608;1.458;2023-05-02T00:39:20;5.30;;;2.60;;
47659;SDS011;33403;43.608;1.458;2023-05-02T00:41:46;4.85;;;2.67;;
47659;SDS011;33403;43.608;1.458;2023-05-02T00:44:12;7.00;;;3.00;;
47659;SDS011;33403;43.608;1.458;2023-05-02T00:46:38;5.43;;;2.83;;
47659;SDS011;33403;43.608;1.458;2023-05-02T00:49:03;5.18;;;2.90;;
47659;SDS011;33403;43.608;1.458;2023-05-02T00:51:32;4.47;;;2.92;;
47659;SDS011;33403;43.608;1.458;2023-05-02T00:53:59;6.22;;;3.20;;
47659;SDS011;33403;43.608;1.458;2023-05-02T00:56:25;5.15;;;3.03;;
47659;SDS011;33403;43.608;1.458;2023-05-02T00:58:51;6.13;;;2.90;;
47659;SDS011;33403;43.608;1.458;2023-05-02T01:01:25;4.47;;;2.95;;
47659;SDS011;33403;43.608;1.458;2023-05-02T01:04:06;3.85;;;2.80;;
47659;SDS011;33403;43.608;1.458;2023-05-02T01:07:34;4.85;;;2.80;;
47659;SDS011;33403;43.608;1.458;2023-05-02T01:12:37;3.90;;;3.03;;
47659;SDS011;33403;43.608;1.458;2023-05-02T01:15:07;4.30;;;2.65;;
47659;SDS011;33403;43.608;1.458;2023-05-02T01:17:36;7.55;;;3.00;;
47659;SDS011;33403;43.608;1.458;2023-05-02T01:20:04;5.90;;;3.00;;
47659;SDS011;33403;43.608;1.458;2023-05-02T01:22:34;8.68;;;3.63;;
47659;SDS011;33403;43.608;1.458;2023-05-02T01:31:07;6.63;;;3.00;;
47659;SDS011;33403;43.608;1.458;2023-05-02T01:33:34;5.47;;;3.05;;
47659;SDS011;33403;43.608;1.458;2023-05-02T01:36:02;5.82;;;2.90;;
47659;SDS011;33403;43.608;1.458;2023-05-02T01:38:29;4.78;;;2.88;;
47659;SDS011;33403;43.608;1.458;2023-05-02T01:40:57;4.18;;;2.92;;
47659;SDS011;33403;43.608;1.458;2023-05-02T01:43:27;6.97;;;3.15;;
47659;SDS011;33403;43.608;1.458;2023-05-02T01:45:54;3.22;;;2.72;;
47659;SDS011;33403;43.608;1.458;2023-05-02T01:48:22;6.50;;;3.10;;
47659;SDS011;33403;43.608;1.458;2023-05-02T01:50:48;4.88;;;3.08;;
47659;SDS011;33403;43.608;1.458;2023-05-02T01:53:16;5.57;;;3.25;;
47659;SDS011;33403;43.608;1.458;2023-05-02T01:55:43;4.55;;;3.10;;
47659;SDS011;33403;43.608;1.458;2023-05-02T01:58:10;6.07;;;2.92;;
47659;SDS011;33403;43.608;1.458;2023-05-02T02:00:38;4.32;;;2.80;;
47659;SDS011;33403;43.608;1.458;2023-05-02T02:03:05;6.55;;;3.00;;
47659;SDS011;33403;43.608;1.458;2023-05-02T02:05:33;6.07;;;3.15;;
47659;SDS011;33403;43.608;1.458;2023-05-02T02:08:00;7.78;;;3.17;;
47659;SDS011;33403;43.608;1.458;2023-05-02T02:10:27;5.75;;;2.97;;
47659;SDS011;33403;43.608;1.458;2023-05-02T02:13:29;6.90;;;3.22;;
47659;SDS011;33403;43.608;1.458;2023-05-02T02:15:52;5.18;;;2.90;;
47659;SDS011;33403;43.608;1.458;2023-05-02T02:18:22;6.97;;;3.25;;
47659;SDS011;33403;43.608;1.458;2023-05-02T02:20:50;5.57;;;3.00;;
47659;SDS011;33403;43.608;1.458;2023-05-02T02:23:18;5.20;;;3.20;;
47659;SDS011;33403;43.608;1.458;2023-05-02T02:25:47;5.55;;;3.13;;
47659;SDS011;33403;43.608;1.458;2023-05-02T02:28:14;5.47;;;3.00;;
47659;SDS011;33403;43.608;1.458;2023-05-02T02:30:40;8.50;;;3.50;;
47659;SDS011;33403;43.608;1.458;2023-05-02T02:33:06;6.13;;;3.30;;
47659;SDS011;33403;43.608;1.458;2023-05-02T02:35:41;5.80;;;3.30;;
47659;SDS011;33403;43.608;1.458;2023-05-02T02:40:48;5.63;;;3.47;;
47659;SDS011;33403;43.608;1.458;2023-05-02T02:43:29;6.03;;;3.42;;
47659;SDS011;33403;43.608;1.458;2023-05-02T02:46:20;6.72;;;3.42;;
47659;SDS011;33403;43.608;1.458;2023-05-02T02:51:57;7.47;;;3.50;;
47659;SDS011;33403;43.608;1.458;2023-05-02T02:57:26;8.70;;;3.63;;
47659;SDS011;33403;43.608;1.458;2023-05-02T03:00:00;7.72;;;3.22;;
47659;SDS011;33403;43.608;1.458;2023-05-02T03:02:32;5.28;;;3.33;;
47659;SDS011;33403;43.608;1.458;2023-05-02T03:04:59;6.55;;;3.70;;
47659;SDS011;33403;43.608;1.458;2023-05-02T03:07:27;5.20;;;3.08;;
47659;SDS011;33403;43.608;1.458;2023-05-02T03:09:53;6.05;;;3.10;;
47659;SDS011;33403;43.608;1.458;2023-05-02T03:12:19;6.85;;;3.50;;
47659;SDS011;33403;43.608;1.458;2023-05-02T03:14:45;5.57;;;3.13;;
47659;SDS011;33403;43.608;1.458;2023-05-02T03:17:11;8.70;;;3.50;;
47659;SDS011;33403;43.608;1.458;2023-05-02T03:19:36;6.28;;;3.45;;
47659;SDS011;33403;43.608;1.458;2023-05-02T03:22:02;4.57;;;3.20;;
47659;SDS011;33403;43.608;1.458;2023-05-02T03:24:28;8.30;;;3.72;;
47659;SDS011;33403;43.608;1.458;2023-05-02T03:26:54;8.15;;;3.58;;
47659;SDS011;33403;43.608;1.458;2023-05-02T03:29:21;7.90;;;3.63;;
47659;SDS011;33403;43.608;1.458;2023-05-02T03:31:47;6.47;;;3.80;;
47659;SDS011;33403;43.608;1.458;2023-05-02T03:34:12;7.32;;;3.95;;
47659;SDS011;33403;43.608;1.458;2023-05-02T03:36:38;6.10;;;3.30;;
47659;SDS011;33403;43.608;1.458;2023-05-02T03:39:04;4.93;;;3.53;;
47659;SDS011;33403;43.608;1.458;2023-05-02T03:41:30;5.85;;;3.70;;
47659;SDS011;33403;43.608;1.458;2023-05-02T03:43:56;7.53;;;3.92;;
47659;SDS011;33403;43.608;1.458;2023-05-02T03:46:22;5.70;;;3.65;;
47659;SDS011;33403;43.608;1.458;2023-05-02T03:48:47;6.53;;;3.95;;
47659;SDS011;33403;43.608;1.458;2023-05-02T03:51:13;6.72;;;3.63;;
47659;SDS011;33403;43.608;1.458;2023-05-02T03:53:39;11.48;;;4.60;;
47659;SDS011;33403;43.608;1.458;2023-05-02T03:56:05;7.72;;;4.03;;
47659;SDS011;33403;43.608;1.458;2023-05-02T03:58:32;6.60;;;3.92;;
47659;SDS011;33403;43.608;1.458;2023-05-02T04:00:58;7.00;;;3.80;;
47659;SDS011;33403;43.608;1.458;2023-05-02T04:03:23;4.15;;;3.70;;
47659;SDS011;33403;43.608;1.458;2023-05-02T04:05:49;9.50;;;4.00;;
47659;SDS011;33403;43.608;1.458;2023-05-02T04:08:15;8.43;;;4.00;;
47659;SDS011;33403;43.608;1.458;2023-05-02T04:10:41;7.90;;;4.32;;
47659;SDS011;33403;43.608;1.458;2023-05-02T04:13:07;6.68;;;3.80;;
47659;SDS011;33403;43.608;1.458;2023-05-02T04:15:33;8.70;;;4.25;;
47659;SDS011;33403;43.608;1.458;2023-05-02T04:17:58;9.38;;;3.80;;
47659;SDS011;33403;43.608;1.458;2023-05-02T04:20:24;6.78;;;4.35;;
47659;SDS011;33403;43.608;1.458;2023-05-02T04:22:50;8.30;;;4.00;;
47659;SDS011;33403;43.608;1.458;2023-05-02T04:25:16;5.43;;;3.72;;
47659;SDS011;33403;43.608;1.458;2023-05-02T04:27:42;7.35;;;4.18;;
47659;SDS011;33403;43.608;1.458;2023-05-02T04:30:08;7.65;;;4.40;;
47659;SDS011;33403;43.608;1.458;2023-05-02T04:32:34;5.97;;;3.88;;
47659;SDS011;33403;43.608;1.458;2023-05-02T04:35:00;7.35;;;4.22;;
47659;SDS011;33403;43.608;1.458;2023-05-02T04:37:26;7.20;;;3.92;;
47659;SDS011;33403;43.608;1.458;2023-05-02T04:39:52;6.47;;;3.97;;
47659;SDS011;33403;43.608;1.458;2023-05-02T04:42:18;6.60;;;4.22;;
47659;SDS011;33403;43.608;1.458;2023-05-02T04:44:43;6.95;;;4.45;;
47659;SDS011;33403;43.608;1.458;2023-05-02T04:47:09;5.80;;;4.25;;
47659;SDS011;33403;43.608;1.458;2023-05-02T04:49:35;6.90;;;4.22;;
47659;SDS011;33403;43.608;1.458;2023-05-02T04:52:00;11.07;;;4.45;;
47659;SDS011;33403;43.608;1.458;2023-05-02T04:54:26;8.38;;;4.45;;
47659;SDS011;33403;43.608;1.458;2023-05-02T04:56:52;8.48;;;4.47;;
47659;SDS011;33403;43.608;1.458;2023-05-02T04:59:18;9.63;;;4.18;;
47659;SDS011;33403;43.608;1.458;2023-05-02T05:01:43;7.38;;;4.30;;
47659;SDS011;33403;43.608;1.458;2023-05-02T05:04:09;6.70;;;4.03;;
47659;SDS011;33403;43.608;1.458;2023-05-02T05:06:35;9.20;;;4.03;;
47659;SDS011;33403;43.608;1.458;2023-05-02T05:09:01;9.13;;;4.10;;
47659;SDS011;33403;43.608;1.458;2023-05-02T05:11:27;6.07;;;4.22;;
47659;SDS011;33403;43.608;1.458;2023-05-02T05:13:53;7.70;;;4.13;;
47659;SDS011;33403;43.608;1.458;2023-05-02T05:16:18;10.13;;;4.22;;
47659;SDS011;33403;43.608;1.458;2023-05-02T05:18:44;7.43;;;4.70;;
47659;SDS011;33403;43.608;1.458;2023-05-02T05:21:10;7.53;;;4.13;;
47659;SDS011;33403;43.608;1.458;2023-05-02T05:23:36;9.40;;;4.63;;
47659;SDS011;33403;43.608;1.458;2023-05-02T05:26:11;7.35;;;4.00;;
47659;SDS011;33403;43.608;1.458;2023-05-02T05:28:39;7.68;;;4.20;;
47659;SDS011;33403;43.608;1.458;2023-05-02T05:31:05;6.68;;;3.85;;
47659;SDS011;33403;43.608;1.458;2023-05-02T05:33:32;6.93;;;3.95;;
47659;SDS011;33403;43.608;1.458;2023-05-02T05:36:08;6.05;;;3.90;;
47659;SDS011;33403;43.608;1.458;2023-05-02T05:38:35;8.82;;;4.53;;
47659;SDS011;33403;43.608;1.458;2023-05-02T05:41:01;6.57;;;4.30;;
47659;SDS011;33403;43.608;1.458;2023-05-02T05:43:27;8.00;;;4.43;;
47659;SDS011;33403;43.608;1.458;2023-05-02T05:45:54;7.40;;;4.43;;
47659;SDS011;33403;43.608;1.458;2023-05-02T05:48:20;8.50;;;4.43;;
47659;SDS011;33403;43.608;1.458;2023-05-02T05:50:46;6.10;;;4.25;;
47659;SDS011;33403;43.608;1.458;2023-05-02T05:53:12;10.80;;;4.28;;
47659;SDS011;33403;43.608;1.458;2023-05-02T05:55:38;6.93;;;4.55;;
47659;SDS011;33403;43.608;1.458;2023-05-02T05:58:04;6.25;;;4.53;;
47659;SDS011;33403;43.608;1.458;2023-05-02T06:00:33;9.60;;;4.82;;
47659;SDS011;33403;43.608;1.458;2023-05-02T06:02:59;9.02;;;4.80;;
47659;SDS011;33403;43.608;1.458;2023-05-02T06:05:25;7.47;;;4.50;;
47659;SDS011;33403;43.608;1.458;2023-05-02T06:07:51;7.30;;;4.40;;
47659;SDS011;33403;43.608;1.458;2023-05-02T06:10:16;9.10;;;5.00;;
47659;SDS011;33403;43.608;1.458;2023-05-02T06:12:42;9.02;;;4.15;;
47659;SDS011;33403;43.608;1.458;2023-05-02T06:15:08;7.57;;;4.45;;
47659;SDS011;33403;43.608;1.458;2023-05-02T06:17:34;8.35;;;4.70;;
47659;SDS011;33403;43.608;1.458;2023-05-02T06:19:59;10.73;;;5.25;;
47659;SDS011;33403;43.608;1.458;2023-05-02T06:22:25;7.82;;;4.30;;
47659;SDS011;33403;43.608;1.458;2023-05-02T06:24:50;7.50;;;4.55;;
47659;SDS011;33403;43.608;1.458;2023-05-02T06:27:16;6.20;;;4.43;;
47659;SDS011;33403;43.608;1.458;2023-05-02T06:29:42;8.38;;;4.60;;
47659;SDS011;33403;43.608;1.458;2023-05-02T06:32:07;9.02;;;4.80;;
47659;SDS011;33403;43.608;1.458;2023-05-02T06:34:34;8.35;;;4.63;;
47659;SDS011;33403;43.608;1.458;2023-05-02T06:36:59;9.35;;;4.80;;
47659;SDS011;33403;43.608;1.458;2023-05-02T06:39:25;7.72;;;4.45;;
47659;SDS011;33403;43.608;1.458;2023-05-02T06:41:56;10.23;;;4.63;;
47659;SDS011;33403;43.608;1.458;2023-05-02T06:44:22;8.38;;;4.88;;
47659;SDS011;33403;43.608;1.458;2023-05-02T06:46:48;10.30;;;4.63;;
47659;SDS011;33403;43.608;1.458;2023-05-02T06:49:14;7.32;;;4.68;;
47659;SDS011;33403;43.608;1.458;2023-05-02T06:51:40;7.28;;;4.68;;
47659;SDS011;33403;43.608;1.458;2023-05-02T06:54:05;10.70;;;4.90;;
47659;SDS011;33403;43.608;1.458;2023-05-02T06:56:31;10.77;;;5.30;;
47659;SDS011;33403;43.608;1.458;2023-05-02T06:58:57;9.80;;;5.20;;
47659;SDS011;33403;43.608;1.458;2023-05-02T07:01:22;8.70;;;4.65;;
47659;SDS011;33403;43.608;1.458;2023-05-02T07:03:48;8.15;;;4.95;;
47659;SDS011;33403;43.608;1.458;2023-05-02T07:06:14;9.25;;;4.82;;
47659;SDS011;33403;43.608;1.458;2023-05-02T07:08:39;11.70;;;5.35;;
47659;SDS011;33403;43.608;1.458;2023-05-02T07:11:05;10.70;;;5.22;;
47659;SDS011;33403;43.608;1.458;2023-05-02T07:13:31;6.72;;;4.43;;
47659;SDS011;33403;43.608;1.458;2023-05-02T07:15:56;11.18;;;4.95;;
47659;SDS011;33403;43.608;1.458;2023-05-02T07:18:22;8.45;;;4.85;;
47659;SDS011;33403;43.608;1.458;2023-05-02T07:20:48;9.90;;;5.00;;
47659;SDS011;33403;43.608;1.458;2023-05-02T07:23:14;8.75;;;5.07;;
47659;SDS011;33403;43.608;1.458;2023-05-02T07:25:39;9.60;;;4.93;;
47659;SDS011;33403;43.608;1.458;2023-05-02T07:28:05;10.65;;;4.68;;
47659;SDS011;33403;43.608;1.458;2023-05-02T07:30:31;9.65;;;4.60;;
47659;SDS011;33403;43.608;1.458;2023-05-02T07:32:56;10.05;;;4.53;;
47659;SDS011;33403;43.608;1.458;2023-05-02T07:35:22;8.57;;;4.47;;
47659;SDS011;33403;43.608;1.458;2023-05-02T07:37:48;7.72;;;3.83;;
47659;SDS011;33403;43.608;1.458;2023-05-02T07:40:13;4.50;;;3.10;;
47659;SDS011;33403;43.608;1.458;2023-05-02T07:42:39;6.43;;;3.95;;
47659;SDS011;33403;43.608;1.458;2023-05-02T07:45:06;9.48;;;3.83;;
47659;SDS011;33403;43.608;1.458;2023-05-02T07:47:32;6.07;;;3.63;;
47659;SDS011;33403;43.608;1.458;2023-05-02T07:49:58;7.22;;;3.38;;
47659;SDS011;33403;43.608;1.458;2023-05-02T07:52:24;4.90;;;3.33;;
47659;SDS011;33403;43.608;1.458;2023-05-02T07:54:50;7.63;;;3.92;;
47659;SDS011;33403;43.608;1.458;2023-05-02T07:57:16;6.40;;;3.55;;
47659;SDS011;33403;43.608;1.458;2023-05-02T07:59:42;7.32;;;3.60;;
47659;SDS011;33403;43.608;1.458;2023-05-02T08:02:08;6.38;;;3.90;;
47659;SDS011;33403;43.608;1.458;2023-05-02T08:04:37;6.57;;;3.80;;
47659;SDS011;33403;43.608;1.458;2023-05-02T08:07:02;6.53;;;3.63;;
47659;SDS011;33403;43.608;1.458;2023-05-02T08:09:28;5.47;;;3.30;;
47659;SDS011;33403;43.608;1.458;2023-05-02T08:11:53;5.50;;;3.38;;
47659;SDS011;33403;43.608;1.458;2023-05-02T08:14:19;5.80;;;3.45;;
47659;SDS011;33403;43.608;1.458;2023-05-02T08:16:45;6.22;;;3.90;;
47659;SDS011;33403;43.608;1.458;2023-05-02T08:19:11;6.20;;;3.90;;
47659;SDS011;33403;43.608;1.458;2023-05-02T08:21:36;5.22;;;3.45;;
47659;SDS011;33403;43.608;1.458;2023-05-02T08:24:02;8.10;;;3.92;;
47659;SDS011;33403;43.608;1.458;2023-05-02T08:26:28;7.22;;;3.65;;
47659;SDS011;33403;43.608;1.458;2023-05-02T08:28:54;8.43;;;3.25;;
47659;SDS011;33403;43.608;1.458;2023-05-02T08:31:20;5.13;;;3.10;;
47659;SDS011;33403;43.608;1.458;2023-05-02T08:33:45;7.35;;;2.97;;
47659;SDS011;33403;43.608;1.458;2023-05-02T08:36:12;5.00;;;3.42;;
47659;SDS011;33403;43.608;1.458;2023-05-02T08:38:38;5.65;;;3.15;;
47659;SDS011;33403;43.608;1.458;2023-05-02T08:41:14;6.63;;;3.40;;
47659;SDS011;33403;43.608;1.458;2023-05-02T08:43:41;7.63;;;3.75;;
47659;SDS011;33403;43.608;1.458;2023-05-02T08:46:09;10.50;;;3.70;;
47659;SDS011;33403;43.608;1.458;2023-05-02T08:48:36;5.43;;;3.40;;
47659;SDS011;33403;43.608;1.458;2023-05-02T08:51:02;4.38;;;3.00;;
47659;SDS011;33403;43.608;1.458;2023-05-02T08:53:33;5.78;;;3.55;;
47659;SDS011;33403;43.608;1.458;2023-05-02T08:55:59;6.60;;;3.58;;
47659;SDS011;33403;43.608;1.458;2023-05-02T08:58:25;4.57;;;2.90;;
47659;SDS011;33403;43.608;1.458;2023-05-02T09:00:51;4.95;;;2.80;;
47659;SDS011;33403;43.608;1.458;2023-05-02T09:03:28;4.50;;;3.33;;
47659;SDS011;33403;43.608;1.458;2023-05-02T09:06:07;6.45;;;2.63;;
47659;SDS011;33403;43.608;1.458;2023-05-02T09:08:39;4.78;;;2.85;;
47659;SDS011;33403;43.608;1.458;2023-05-02T09:11:07;3.55;;;2.50;;
47659;SDS011;33403;43.608;1.458;2023-05-02T09:13:38;4.65;;;2.72;;
47659;SDS011;33403;43.608;1.458;2023-05-02T09:18:31;4.32;;;2.90;;
47659;SDS011;33403;43.608;1.458;2023-05-02T09:20:59;6.20;;;2.88;;
47659;SDS011;33403;43.608;1.458;2023-05-02T09:23:35;4.40;;;2.55;;
47659;SDS011;33403;43.608;1.458;2023-05-02T09:26:12;4.43;;;2.70;;
47659;SDS011;33403;43.608;1.458;2023-05-02T09:28:41;6.13;;;2.67;;
47659;SDS011;33403;43.608;1.458;2023-05-02T09:31:09;4.53;;;2.80;;
47659;SDS011;33403;43.608;1.458;2023-05-02T09:33:39;5.07;;;2.47;;
47659;SDS011;33403;43.608;1.458;2023-05-02T09:36:06;6.53;;;3.10;;
47659;SDS011;33403;43.608;1.458;2023-05-02T09:38:34;6.00;;;2.80;;
47659;SDS011;33403;43.608;1.458;2023-05-02T09:41:00;4.30;;;2.60;;
47659;SDS011;33403;43.608;1.458;2023-05-02T09:43:27;5.82;;;2.83;;
47659;SDS011;33403;43.608;1.458;2023-05-02T09:45:58;5.88;;;2.70;;
47659;SDS011;33403;43.608;1.458;2023-05-02T09:48:26;6.43;;;2.92;;
47659;SDS011;33403;43.608;1.458;2023-05-02T09:50:52;5.35;;;3.13;;
47659;SDS011;33403;43.608;1.458;2023-05-02T09:53:18;7.45;;;3.03;;
47659;SDS011;33403;43.608;1.458;2023-05-02T09:55:44;4.85;;;2.70;;
47659;SDS011;33403;43.608;1.458;2023-05-02T09:58:22;4.43;;;2.50;;
47659;SDS011;33403;43.608;1.458;2023-05-02T10:00:49;4.88;;;2.45;;
47659;SDS011;33403;43.608;1.458;2023-05-02T10:03:16;3.00;;;2.30;;
47659;SDS011;33403;43.608;1.458;2023-05-02T10:05:44;4.22;;;2.28;;
47659;SDS011;33403;43.608;1.458;2023-05-02T10:08:11;4.32;;;2.40;;
47659;SDS011;33403;43.608;1.458;2023-05-02T10:10:38;7.68;;;2.63;;
47659;SDS011;33403;43.608;1.458;2023-05-02T10:13:08;4.30;;;2.05;;
47659;SDS011;33403;43.608;1.458;2023-05-02T10:15:43;3.75;;;2.20;;
47659;SDS011;33403;43.608;1.458;2023-05-02T10:18:13;2.22;;;1.88;;
47659;SDS011;33403;43.608;1.458;2023-05-02T10:20:52;3.30;;;2.10;;
47659;SDS011;33403;43.608;1.458;2023-05-02T10:23:23;3.08;;;2.00;;
47659;SDS011;33403;43.608;1.458;2023-05-02T10:25:50;3.90;;;2.00;;
47659;SDS011;33403;43.608;1.458;2023-05-02T10:28:17;3.53;;;2.03;;
47659;SDS011;33403;43.608;1.458;2023-05-02T10:30:43;2.13;;;1.70;;
47659;SDS011;33403;43.608;1.458;2023-05-02T10:33:11;3.88;;;1.95;;
47659;SDS011;33403;43.608;1.458;2023-05-02T10:35:38;3.58;;;1.92;;
47659;SDS011;33403;43.608;1.458;2023-05-02T10:38:08;3.58;;;1.77;;
47659;SDS011;33403;43.608;1.458;2023-05-02T10:40:34;5.22;;;1.73;;
47659;SDS011;33403;43.608;1.458;2023-05-02T10:43:00;5.72;;;2.33;;
47659;SDS011;33403;43.608;1.458;2023-05-02T10:45:34;2.00;;;1.80;;
47659;SDS011;33403;43.608;1.458;2023-05-02T10:48:17;4.45;;;2.20;;
47659;SDS011;33403;43.608;1.458;2023-05-02T10:50:45;3.63;;;1.90;;
47659;SDS011;33403;43.608;1.458;2023-05-02T10:56:32;2.50;;;1.80;;
47659;SDS011;33403;43.608;1.458;2023-05-02T10:58:35;3.10;;;1.70;;
47659;SDS011;33403;43.608;1.458;2023-05-02T11:03:58;4.68;;;1.75;;
47659;SDS011;33403;43.608;1.458;2023-05-02T11:06:25;6.13;;;2.03;;
47659;SDS011;33403;43.608;1.458;2023-05-02T11:09:28;4.63;;;1.95;;
47659;SDS011;33403;43.608;1.458;2023-05-02T11:11:44;2.90;;;1.80;;
47659;SDS011;33403;43.608;1.458;2023-05-02T11:14:33;2.33;;;1.50;;
47659;SDS011;33403;43.608;1.458;2023-05-02T11:22:44;3.58;;;1.50;;
47659;SDS011;33403;43.608;1.458;2023-05-02T11:24:56;2.70;;;1.48;;
47659;SDS011;33403;43.608;1.458;2023-05-02T11:29:54;5.55;;;1.80;;
47659;SDS011;33403;43.608;1.458;2023-05-02T11:32:25;5.13;;;1.73;;
47659;SDS011;33403;43.608;1.458;2023-05-02T11:35:16;6.38;;;1.88;;
47659;SDS011;33403;43.608;1.458;2023-05-02T11:40:23;5.15;;;1.83;;
47659;SDS011;33403;43.608;1.458;2023-05-02T11:42:51;4.13;;;1.80;;
47659;SDS011;33403;43.608;1.458;2023-05-02T11:45:16;5.03;;;1.73;;
47659;SDS011;33403;43.608;1.458;2023-05-02T11:47:43;3.42;;;1.88;;
47659;SDS011;33403;43.608;1.458;2023-05-02T11:50:12;3.45;;;1.48;;
47659;SDS011;33403;43.608;1.458;2023-05-02T11:52:42;9.88;;;2.08;;
47659;SDS011;33403;43.608;1.458;2023-05-02T11:55:12;4.60;;;1.90;;
47659;SDS011;33403;43.608;1.458;2023-05-02T11:57:40;3.45;;;1.70;;
47659;SDS011;33403;43.608;1.458;2023-05-02T12:00:07;3.60;;;1.83;;
47659;SDS011;33403;43.608;1.458;2023-05-02T12:02:38;2.85;;;1.50;;
47659;SDS011;33403;43.608;1.458;2023-05-02T12:05:05;1.83;;;1.50;;
47659;SDS011;33403;43.608;1.458;2023-05-02T12:07:38;5.03;;;1.73;;
47659;SDS011;33403;43.608;1.458;2023-05-02T12:10:09;3.88;;;1.67;;
47659;SDS011;33403;43.608;1.458;2023-05-02T12:12:36;3.47;;;1.83;;
47659;SDS011;33403;43.608;1.458;2023-05-02T12:15:04;10.02;;;1.77;;
47659;SDS011;33403;43.608;1.458;2023-05-02T12:17:31;14.57;;;1.90;;
47659;SDS011;33403;43.608;1.458;2023-05-02T12:19:58;6.15;;;1.50;;
47659;SDS011;33403;43.608;1.458;2023-05-02T12:22:26;6.43;;;1.52;;
47659;SDS011;33403;43.608;1.458;2023-05-02T12:24:52;4.97;;;1.58;;
47659;SDS011;33403;43.608;1.458;2023-05-02T12:27:18;7.18;;;1.48;;
47659;SDS011;33403;43.608;1.458;2023-05-02T12:29:45;9.95;;;1.88;;
47659;SDS011;33403;43.608;1.458;2023-05-02T12:32:12;14.55;;;2.15;;
47659;SDS011;33403;43.608;1.458;2023-05-02T12:34:39;13.27;;;2.28;;
47659;SDS011;33403;43.608;1.458;2023-05-02T12:37:05;19.98;;;2.40;;
47659;SDS011;33403;43.608;1.458;2023-05-02T12:39:39;6.50;;;1.75;;
47659;SDS011;33403;43.608;1.458;2023-05-02T12:44:39;5.50;;;1.70;;
47659;SDS011;33403;43.608;1.458;2023-05-02T12:47:10;6.60;;;1.60;;
47659;SDS011;33403;43.608;1.458;2023-05-02T12:55:24;3.80;;;1.60;;
47659;SDS011;33403;43.608;1.458;2023-05-02T12:57:59;2.70;;;1.40;;
47659;SDS011;33403;43.608;1.458;2023-05-02T13:00:33;2.40;;;1.30;;
47659;SDS011;33403;43.608;1.458;2023-05-02T13:03:01;2.85;;;1.30;;
47659;SDS011;33403;43.608;1.458;2023-05-02T13:05:27;6.45;;;1.48;;
47659;SDS011;33403;43.608;1.458;2023-05-02T13:07:52;4.95;;;1.65;;
47659;SDS011;33403;43.608;1.458;2023-05-02T13:10:20;5.80;;;1.77;;
47659;SDS011;33403;43.608;1.458;2023-05-02T13:12:47;1.50;;;1.10;;
47659;SDS011;33403;43.608;1.458;2023-05-02T13:15:13;2.38;;;1.20;;
47659;SDS011;33403;43.608;1.458;2023-05-02T13:17:39;3.22;;;1.27;;
47659;SDS011;33403;43.608;1.458;2023-05-02T13:20:05;2.78;;;1.20;;
47659;SDS011;33403;43.608;1.458;2023-05-02T13:22:32;5.63;;;1.50;;
47659;SDS011;33403;43.608;1.458;2023-05-02T13:24:58;2.42;;;1.10;;
47659;SDS011;33403;43.608;1.458;2023-05-02T13:27:23;2.63;;;1.40;;
47659;SDS011;33403;43.608;1.458;2023-05-02T13:29:49;3.33;;;1.40;;
47659;SDS011;33403;43.608;1.458;2023-05-02T13:32:15;3.05;;;1.05;;
47659;SDS011;33403;43.608;1.458;2023-05-02T13:34:41;2.65;;;1.35;;
47659;SDS011;33403;43.608;1.458;2023-05-02T13:37:07;4.72;;;1.50;;
47659;SDS011;33403;43.608;1.458;2023-05-02T13:39:33;2.95;;;1.20;;
47659;SDS011;33403;43.608;1.458;2023-05-02T13:41:59;3.13;;;1.40;;
47659;SDS011;33403;43.608;1.458;2023-05-02T13:44:27;2.05;;;1.23;;
47659;SDS011;33403;43.608;1.458;2023-05-02T13:46:53;1.88;;;1.50;;
47659;SDS011;33403;43.608;1.458;2023-05-02T13:49:18;3.22;;;1.35;;
47659;SDS011;33403;43.608;1.458;2023-05-02T13:51:44;3.33;;;1.20;;
47659;SDS011;33403;43.608;1.458;2023-05-02T13:54:11;3.10;;;1.50;;
47659;SDS011;33403;43.608;1.458;2023-05-02T13:56:36;2.65;;;1.30;;
47659;SDS011;33403;43.608;1.458;2023-05-02T13:59:03;2.20;;;1.35;;
47659;SDS011;33403;43.608;1.458;2023-05-02T14:01:29;2.17;;;1.40;;
47659;SDS011;33403;43.608;1.458;2023-05-02T14:03:56;2.97;;;1.30;;
47659;SDS011;33403;43.608;1.458;2023-05-02T14:06:21;1.73;;;1.40;;
47659;SDS011;33403;43.608;1.458;2023-05-02T14:08:47;2.13;;;1.42;;
47659;SDS011;33403;43.608;1.458;2023-05-02T14:11:13;1.77;;;1.10;;
47659;SDS011;33403;43.608;1.458;2023-05-02T14:13:38;5.50;;;1.40;;
47659;SDS011;33403;43.608;1.458;2023-05-02T14:16:04;3.42;;;1.30;;
47659;SDS011;33403;43.608;1.458;2023-05-02T14:18:30;2.83;;;1.38;;
47659;SDS011;33403;43.608;1.458;2023-05-02T14:20:56;1.80;;;1.30;;
47659;SDS011;33403;43.608;1.458;2023-05-02T14:23:24;2.47;;;1.60;;
47659;SDS011;33403;43.608;1.458;2023-05-02T14:25:52;3.40;;;1.35;;
47659;SDS011;33403;43.608;1.458;2023-05-02T14:28:18;1.63;;;1.20;;
47659;SDS011;33403;43.608;1.458;2023-05-02T14:30:43;2.33;;;1.30;;
47659;SDS011;33403;43.608;1.458;2023-05-02T14:33:09;1.58;;;1.30;;
47659;SDS011;33403;43.608;1.458;2023-05-02T14:35:35;2.75;;;1.20;;
47659;SDS011;33403;43.608;1.458;2023-05-02T14:38:00;1.85;;;1.20;;
47659;SDS011;33403;43.608;1.458;2023-05-02T14:40:26;2.65;;;1.30;;
47659;SDS011;33403;43.608;1.458;2023-05-02T14:42:52;2.55;;;1.30;;
47659;SDS011;33403;43.608;1.458;2023-05-02T14:45:17;4.40;;;1.20;;
47659;SDS011;33403;43.608;1.458;2023-05-02T14:47:43;1.95;;;1.40;;
47659;SDS011;33403;43.608;1.458;2023-05-02T14:50:08;2.95;;;1.38;;
47659;SDS011;33403;43.608;1.458;2023-05-02T14:52:34;2.08;;;1.20;;
47659;SDS011;33403;43.608;1.458;2023-05-02T14:55:01;2.17;;;1.27;;
47659;SDS011;33403;43.608;1.458;2023-05-02T14:57:26;1.45;;;1.20;;
47659;SDS011;33403;43.608;1.458;2023-05-02T14:59:52;2.33;;;1.35;;
47659;SDS011;33403;43.608;1.458;2023-05-02T15:02:18;2.42;;;1.17;;
47659;SDS011;33403;43.608;1.458;2023-05-02T15:04:45;2.67;;;1.30;;
47659;SDS011;33403;43.608;1.458;2023-05-02T15:07:11;2.00;;;1.20;;
47659;SDS011;33403;43.608;1.458;2023-05-02T15:09:36;2.40;;;1.38;;
47659;SDS011;33403;43.608;1.458;2023-05-02T15:12:02;3.00;;;1.00;;
47659;SDS011;33403;43.608;1.458;2023-05-02T15:14:28;1.98;;;1.00;;
47659;SDS011;33403;43.608;1.458;2023-05-02T15:16:53;1.25;;;0.90;;
47659;SDS011;33403;43.608;1.458;2023-05-02T15:19:19;1.65;;;0.90;;
47659;SDS011;33403;43.608;1.458;2023-05-02T15:21:49;2.53;;;0.90;;
47659;SDS011;33403;43.608;1.458;2023-05-02T15:24:17;1.38;;;0.90;;
47659;SDS011;33403;43.608;1.458;2023-05-02T15:26:43;1.52;;;1.10;;
47659;SDS011;33403;43.608;1.458;2023-05-02T15:29:09;1.67;;;1.00;;
47659;SDS011;33403;43.608;1.458;2023-05-02T15:31:35;2.38;;;1.20;;
47659;SDS011;33403;43.608;1.458;2023-05-02T15:34:01;1.55;;;0.90;;